Glenview, IL (60025)

7:13 PM CDT on August 29, 2014 (GMT -0500)
Village Of Niles | Change Station
CLOSE
Current Station
Personal Weather Station
Location: Niles, IL
Elevation: 636 ft
Nearby Weather Stations

Elev 636 ft 42.04 °N, 87.81 °W | Updated 3 seconds ago

Scattered Clouds
Scattered Clouds
78.4 °F
Feels Like 81 °F
N
0.0
Wind Variable Wind from WNW
Gusts 0.0 mph

Today
High -- | Low -- °F
--% Chance of Precip.
Yesterday
High -- | Low -- °F
Precip. -- in
6:13 AM 7:29 PM
Waxing Crescent, 17% visible
Pressure 29.88 in
Visibility 8.0 miles
Clouds Few 3000 ft
Scattered Clouds 3900 ft
Heat Index 81 °F
Dew Point 75 °F
Humidity 90%
Rainfall 0.00 in
Snow Depth Not available.
UV 0 out of 12
Pollen 4.40 out of 12
Ozone Good
PM2.5 Moderate
Flu Activity Not available.
METAR KPWK 292352Z 13009KT 8SM FEW030 SCT039 28/22 A2989 RMK AO2 SLP117 T02780222 10306 20278 56001

More Conditions Fewer Conditions

Pressure 29.88 in
Visibility 8.0 miles
Clouds Few 3000 ft
Scattered Clouds 3900 ft
Heat Index 81 °F
Dew Point 75 °F
Humidity 90%
Rainfall 0.00 in
Snow Depth Not available.
UV 0 out of 12
Pollen 4.40 out of 12
Ozone Good
PM2.5 Moderate
Flu Activity Not available.
METAR KPWK 292352Z 13009KT 8SM FEW030 SCT039 28/22 A2989 RMK AO2 SLP117 T02780222 10306 20278 56001

More Conditions Fewer Conditions

10-Day Weather Forecast

Almanac

Astronomy

Aug. 29, 2014 Rise Set
Actual Time 6:13 AM CDT 7:29 PM CDT
Civil Twilight 5:44 AM CDT 7:58 PM CDT
Nautical Twilight 5:09 AM CDT 8:33 PM CDT
Astronomical Twilight 4:33 AM CDT 9:09 PM CDT
Moon 10:07 AM CDT (8/29) 9:22 PM CDT (8/29)
Length of Visible Light 14h 14m
Length of Day
13h 16m
Tomorrow will be 2m 42s shorter.
Waxing Crescent, 17% of the Moon is Illuminated
Today
Waxing Crescent
Sep 2
First Quarter
Sep 8
Full
Sep 15
Last Quarter
Sep 24
New

Today's Extremes

State Highs State Lows

Community

WunderPhotos

Upload Photos

1,748,382 photos uploaded!

Nearby

Air Quality

  Air Quality AQ Index Pollutant
Yesterday Good
PM2.5
Yesterday Good
OZONE
Current Moderate
PM2.5
Current Good
OZONE
Friday Moderate
PM2.5
Friday Good
OZONE
Saturday Moderate
PM2.5
Saturday Good
OZONE
Sunday Moderate
OZONE
Sunday Good
PM2.5
Monday Moderate
PM2.5
Monday Good
OZONE
Tuesday Good
OZONE
Tuesday Good
PM2.5

Snow Depth

Station Depth Elevation
No new snow has been reported.

Earthquake Activity

City Distance Mag. Time & Date
No recent earthquake activity has been reported nearby.
Minimum magnitude displayed is 2.5.

Coastal Water Temperatures

Place Temperature
No Stations Reporting

Nearby Weather Stations